If you wish to contribute or participate in the discussions about articles you are invited to join SKYbrary as a registered user

 Actions

Payerne Airport

From SKYbrary Wiki

LSMP
Airport
ICAO: LSMP
Summary
Name Payerne Airport
Region Europe
Territory Switzerland CH.gif
Location , Fribourg
Serving Payerne
Elevation 446.532 m
1,465 ft
1,465 ft446.532 m
Type medium airport
Coordinates 46° 50' 35.55" N, 6° 54' 54.21" E
Runways
Designator Length Width Surface ROPS
5/23 2858 m9,376.64 ft
40 m131.234 ft
ASP /


METAR
Observation LSMP 150920Z AUTO VRB01KT 9999NDV NCD 20/16 Q1027 RMK
Station Payerne
Date/Time 15 September 2019 09:20:00
Wind direction °
Wind speed 01 kts
Lowest cloud amount n/a
Temperature 20°C
Dew point 16°C
Humidity 77%
QNH 1027 hPa
Weather condition n/a